Time;durP1;ratioP1;P1;durP2;ratioP2;P2;SDS_P1;SDS_P2;PMS_P1;PMS_P2;Temp;Humidity;BMP_temperature;BMP_pressure;BME280_temperature;BME280_humidity;BME280_pressure;Samples;Min_cycle;Max_cycle;Signal;HPM_P1;HPM_P2
2023/11/07 00:01:50;;;;;;;7.38;1.77;;;8.60;99.90;;;;;;5030038;28;20060;-76
2023/11/07 00:04:16;;;;;;;9.57;1.55;;;8.60;99.90;;;;;;5029407;28;20430;-76
2023/11/07 00:06:42;;;;;;;10.02;2.10;;;8.60;99.90;;;;;;5012281;28;20097;-76
2023/11/07 00:09:08;;;;;;;2.80;1.20;;;8.60;99.90;;;;;;5011142;28;20041;-75
2023/11/07 00:11:39;;;;;;;7.95;2.15;;;8.60;99.90;;;;;;5012488;28;20052;-76
2023/11/07 00:14:05;;;;;;;6.45;1.42;;;8.60;99.90;;;;;;5029129;28;20029;-75
2023/11/07 00:16:30;;;;;;;8.68;1.80;;;8.70;99.90;;;;;;5029929;28;20041;-75
2023/11/07 00:18:56;;;;;;;10.27;1.20;;;8.70;99.90;;;;;;5010893;28;20371;-76
2023/11/07 00:21:22;;;;;;;9.57;1.45;;;8.70;99.90;;;;;;5029991;28;20103;-76
2023/11/07 00:23:48;;;;;;;6.03;1.98;;;8.80;99.90;;;;;;5012244;28;20037;-76
2023/11/07 00:26:14;;;;;;;2.45;1.10;;;8.90;99.90;;;;;;5027728;28;20778;-75
2023/11/07 00:28:40;;;;;;;5.45;2.50;;;8.90;99.90;;;;;;5029464;28;20057;-74
2023/11/07 00:31:06;;;;;;;5.20;1.17;;;9.00;99.90;;;;;;5028932;28;20483;-75
2023/11/07 00:33:32;;;;;;;4.20;1.40;;;9.00;99.90;;;;;;5029676;28;20071;-76
2023/11/07 00:35:58;;;;;;;5.90;1.67;;;9.00;99.90;;;;;;5028494;28;20429;-76
2023/11/07 00:38:25;;;;;;;6.60;1.17;;;9.00;99.90;;;;;;5011595;28;20026;-75
2023/11/07 00:40:51;;;;;;;5.90;0.98;;;9.10;99.90;;;;;;5011792;28;20046;-77
2023/11/07 00:43:17;;;;;;;4.80;0.82;;;9.00;99.90;;;;;;5010618;28;20037;-75
2023/11/07 00:45:43;;;;;;;4.80;1.10;;;9.00;99.90;;;;;;5011345;28;20029;-76
2023/11/07 00:48:09;;;;;;;6.97;1.65;;;9.00;99.90;;;;;;5030776;28;20133;-76
2023/11/07 00:50:36;;;;;;;4.90;1.70;;;9.00;99.90;;;;;;5011718;28;20407;-75
2023/11/07 00:53:03;;;;;;;4.38;1.17;;;9.00;99.90;;;;;;5010237;28;20033;-76
2023/11/07 00:55:29;;;;;;;6.47;0.93;;;9.10;99.90;;;;;;5029190;28;20376;-78
2023/11/07 00:57:54;;;;;;;6.13;1.95;;;9.10;99.90;;;;;;5028008;28;20037;-74
2023/11/07 01:00:21;;;;;;;3.47;0.90;;;9.10;99.90;;;;;;5011045;28;20036;-74
2023/11/07 01:02:47;;;;;;;4.53;0.80;;;9.10;99.90;;;;;;5029232;28;20541;-75
2023/11/07 01:05:13;;;;;;;7.25;1.45;;;9.10;99.90;;;;;;5009760;28;20033;-76
2023/11/07 01:07:39;;;;;;;5.80;1.25;;;9.10;99.90;;;;;;5029003;28;20398;-74
2023/11/07 01:10:06;;;;;;;2.53;1.00;;;9.10;99.90;;;;;;5027838;28;20029;-77
2023/11/07 01:12:32;;;;;;;5.40;1.00;;;9.00;99.90;;;;;;5029388;28;20036;-76
2023/11/07 01:14:58;;;;;;;7.10;1.08;;;9.10;99.90;;;;;;5027544;28;20033;-75
2023/11/07 01:17:23;;;;;;;6.07;1.17;;;9.00;99.90;;;;;;5011458;28;20427;-75
2023/11/07 01:19:49;;;;;;;1.77;0.88;;;9.10;99.90;;;;;;5010882;28;20095;-77
2023/11/07 01:22:15;;;;;;;3.10;0.70;;;9.10;99.90;;;;;;5027492;28;20033;-75
2023/11/07 01:24:40;;;;;;;8.23;2.13;;;9.10;99.90;;;;;;5028424;28;20034;-75
2023/11/07 01:27:07;;;;;;;6.45;1.40;;;9.00;99.90;;;;;;5027675;28;20063;-74
2023/11/07 01:29:32;;;;;;;6.68;1.02;;;9.00;99.90;;;;;;5028513;28;20030;-74
2023/11/07 01:31:58;;;;;;;9.35;1.10;;;9.00;99.90;;;;;;5009877;28;20033;-75
2023/11/07 01:34:23;;;;;;;7.20;0.80;;;9.00;99.90;;;;;;5028455;28;20462;-75
2023/11/07 01:36:49;;;;;;;2.90;1.10;;;9.00;99.90;;;;;;5010676;28;20025;-75
2023/11/07 01:39:14;;;;;;;5.93;1.50;;;9.10;99.90;;;;;;5026659;28;20392;-75
2023/11/07 01:41:40;;;;;;;4.40;1.10;;;9.10;99.90;;;;;;5014523;28;20034;-75
2023/11/07 01:44:06;;;;;;;5.15;0.95;;;9.10;99.90;;;;;;5031036;28;20037;-75
2023/11/07 01:46:32;;;;;;;5.60;1.05;;;9.20;99.90;;;;;;5028052;28;20041;-74
2023/11/07 01:48:58;;;;;;;9.13;1.05;;;9.20;99.90;;;;;;5027144;28;20556;-76
2023/11/07 01:51:24;;;;;;;4.38;1.00;;;9.20;99.90;;;;;;5010556;28;20080;-75
2023/11/07 01:53:52;;;;;;;6.78;1.00;;;9.20;99.90;;;;;;5028226;28;20040;-75
2023/11/07 01:56:18;;;;;;;6.05;0.82;;;9.20;99.90;;;;;;5044729;28;20114;-75
2023/11/07 01:58:44;;;;;;;5.75;1.95;;;9.20;99.90;;;;;;5030018;28;20044;-74
2023/11/07 02:01:10;;;;;;;4.75;1.25;;;9.30;99.90;;;;;;5011388;28;20033;-75
2023/11/07 02:03:38;;;;;;;7.03;1.00;;;9.20;99.90;;;;;;5027854;28;20025;-75
2023/11/07 02:06:04;;;;;;;10.07;1.13;;;9.20;99.90;;;;;;5008938;28;20032;-74
2023/11/07 02:08:31;;;;;;;8.95;1.27;;;9.20;99.90;;;;;;5010438;28;20881;-75
2023/11/07 02:10:56;;;;;;;5.38;0.82;;;9.20;99.90;;;;;;5009152;28;20119;-76
2023/11/07 02:13:22;;;;;;;3.05;1.35;;;9.20;99.90;;;;;;5028076;28;20060;-75
2023/11/07 02:15:48;;;;;;;5.95;0.93;;;9.20;99.90;;;;;;5027907;28;20022;-78
2023/11/07 02:18:13;;;;;;;8.45;2.13;;;9.20;99.90;;;;;;5008912;28;20131;-76
2023/11/07 02:20:40;;;;;;;4.22;0.93;;;9.20;99.90;;;;;;5027847;28;20041;-75
2023/11/07 02:23:29;;;;;;;5.60;1.20;;;9.20;99.90;;;;;;5026666;28;20034;-76
2023/11/07 02:25:55;;;;;;;5.32;1.20;;;9.20;99.90;;;;;;5001556;28;20041;-76
2023/11/07 02:28:21;;;;;;;7.57;1.35;;;9.10;99.90;;;;;;5027605;28;20037;-76
2023/11/07 02:30:47;;;;;;;6.63;1.10;;;9.20;99.90;;;;;;5027642;28;20037;-75
2023/11/07 02:33:14;;;;;;;8.40;1.58;;;9.10;99.90;;;;;;5008347;28;20419;-75
2023/11/07 02:35:41;;;;;;;2.15;0.93;;;9.10;99.90;;;;;;5027636;28;20438;-74
2023/11/07 02:38:07;;;;;;;4.43;1.27;;;9.10;99.90;;;;;;5026099;28;20030;-76
2023/11/07 02:40:33;;;;;;;5.38;1.20;;;9.10;99.90;;;;;;5027678;28;20037;-75
2023/11/07 02:43:02;;;;;;;7.00;1.40;;;9.10;99.90;;;;;;5026667;28;20091;-74
2023/11/07 02:45:28;;;;;;;3.53;0.77;;;9.10;99.90;;;;;;5027694;28;20037;-74
2023/11/07 02:47:54;;;;;;;10.15;1.52;;;9.10;99.90;;;;;;5017235;28;20065;-75
2023/11/07 02:50:20;;;;;;;3.85;0.82;;;9.20;99.90;;;;;;5029388;28;20037;-76
2023/11/07 02:52:45;;;;;;;4.55;1.27;;;9.20;99.90;;;;;;5032021;28;20045;-76
2023/11/07 02:55:11;;;;;;;3.40;1.20;;;9.20;99.90;;;;;;5029099;28;20056;-76
2023/11/07 02:57:36;;;;;;;6.63;1.52;;;9.20;99.90;;;;;;5030242;28;20072;-75
2023/11/07 03:00:03;;;;;;;4.00;1.40;;;9.20;99.90;;;;;;5029126;28;20132;-76
2023/11/07 03:02:28;;;;;;;8.23;1.45;;;9.20;99.90;;;;;;5031865;28;20106;-77
2023/11/07 03:04:55;;;;;;;8.43;1.55;;;9.20;99.90;;;;;;5030413;28;20426;-75
2023/11/07 03:07:21;;;;;;;5.50;1.27;;;9.20;99.90;;;;;;5031323;28;20025;-75
2023/11/07 03:09:47;;;;;;;5.40;1.60;;;9.20;99.90;;;;;;5029915;28;20095;-75
2023/11/07 03:12:14;;;;;;;4.88;1.10;;;9.20;99.90;;;;;;5028979;28;20041;-77
2023/11/07 03:14:42;;;;;;;4.88;1.40;;;9.20;99.90;;;;;;5031132;28;20025;-75
2023/11/07 03:17:08;;;;;;;5.88;1.20;;;9.20;99.90;;;;;;5028683;28;20033;-77
2023/11/07 03:19:34;;;;;;;8.82;1.70;;;9.20;99.90;;;;;;5031275;28;20040;-75
2023/11/07 03:21:59;;;;;;;10.05;1.98;;;9.20;99.90;;;;;;5030235;28;20483;-75
2023/11/07 03:24:25;;;;;;;9.15;1.60;;;9.20;99.90;;;;;;5029589;28;20045;-76
2023/11/07 03:26:50;;;;;;;7.43;1.60;;;9.20;99.90;;;;;;5029316;28;20038;-75
2023/11/07 03:29:16;;;;;;;4.57;1.38;;;9.20;99.90;;;;;;5029977;28;20134;-76
2023/11/07 03:31:43;;;;;;;7.38;1.77;;;9.20;99.90;;;;;;5030869;28;20033;-76
2023/11/07 03:34:09;;;;;;;5.45;1.52;;;9.20;99.90;;;;;;5029921;28;20043;-74
2023/11/07 03:36:35;;;;;;;4.13;0.98;;;9.20;99.90;;;;;;5031075;28;20033;-75
2023/11/07 03:39:01;;;;;;;5.60;1.23;;;9.20;99.90;;;;;;5029355;28;20136;-75
2023/11/07 03:41:27;;;;;;;6.03;2.05;;;9.20;99.90;;;;;;5029755;28;20036;-76
2023/11/07 03:43:53;;;;;;;4.80;1.13;;;9.10;99.90;;;;;;5030843;28;20038;-76
2023/11/07 03:46:19;;;;;;;6.38;1.30;;;9.10;99.90;;;;;;5030151;28;20026;-75
2023/11/07 03:48:44;;;;;;;7.82;1.35;;;9.10;99.90;;;;;;5030542;28;20037;-75
2023/11/07 03:51:10;;;;;;;4.80;1.45;;;9.10;99.90;;;;;;5029422;28;20065;-77
2023/11/07 03:53:36;;;;;;;3.40;1.20;;;9.20;99.90;;;;;;5012641;28;20376;-75
2023/11/07 03:56:02;;;;;;;3.13;1.38;;;9.10;99.90;;;;;;5029333;28;20117;-76
2023/11/07 03:58:27;;;;;;;2.60;0.95;;;9.10;99.90;;;;;;5012213;28;20034;-77
2023/11/07 04:00:53;;;;;;;7.18;0.98;;;9.10;99.90;;;;;;5029944;28;20059;-75
2023/11/07 04:03:19;;;;;;;8.38;0.90;;;9.10;99.90;;;;;;5011789;28;20095;-74
2023/11/07 04:05:44;;;;;;;5.13;1.60;;;9.10;99.90;;;;;;5030101;28;20570;-74
2023/11/07 04:08:10;;;;;;;7.20;2.28;;;9.10;99.90;;;;;;5029148;28;20124;-77
2023/11/07 04:10:36;;;;;;;5.05;1.58;;;9.10;99.90;;;;;;5030157;28;20033;-76
2023/11/07 04:13:05;;;;;;;8.52;1.45;;;9.00;99.90;;;;;;5011562;28;20037;-76
2023/11/07 04:15:31;;;;;;;3.83;1.00;;;9.10;99.90;;;;;;5012253;28;20044;-76
2023/11/07 04:17:57;;;;;;;9.30;0.77;;;9.00;99.90;;;;;;5011433;28;20755;-76
2023/11/07 04:20:24;;;;;;;4.63;1.60;;;9.00;99.90;;;;;;5029692;28;20041;-75
2023/11/07 04:22:50;;;;;;;5.53;1.00;;;8.90;99.90;;;;;;5030226;28;20037;-75
2023/11/07 04:25:19;;;;;;;7.53;0.93;;;8.90;99.90;;;;;;5028712;28;20093;-76
2023/11/07 04:27:46;;;;;;;5.93;1.52;;;8.80;99.90;;;;;;5030305;28;20476;-74
2023/11/07 04:30:13;;;;;;;4.32;1.00;;;8.90;99.90;;;;;;5010853;28;20033;-76
2023/11/07 04:32:39;;;;;;;4.15;1.08;;;8.90;99.90;;;;;;5012080;28;20064;-75
2023/11/07 04:35:06;;;;;;;2.15;0.80;;;8.80;99.90;;;;;;5010275;28;20457;-77
2023/11/07 04:37:35;;;;;;;2.72;0.70;;;8.80;99.90;;;;;;5029652;28;20032;-75
2023/11/07 04:40:02;;;;;;;5.60;1.10;;;8.80;99.90;;;;;;5010691;28;20029;-74
2023/11/07 04:42:27;;;;;;;3.63;0.90;;;8.70;99.90;;;;;;5011716;28;20124;-74
2023/11/07 04:44:53;;;;;;;4.57;1.10;;;8.60;99.90;;;;;;5029438;28;20781;-75
2023/11/07 04:47:20;;;;;;;11.32;2.85;;;8.50;99.90;;;;;;5028958;28;20041;-75
2023/11/07 04:49:45;;;;;;;10.85;2.65;;;8.50;99.90;;;;;;5012279;28;20029;-74
2023/11/07 04:52:11;;;;;;;4.95;1.20;;;8.50;99.90;;;;;;5010780;28;20421;-74
2023/11/07 04:54:38;;;;;;;4.93;1.38;;;8.40;99.90;;;;;;5029028;28;20030;-75
2023/11/07 04:57:05;;;;;;;5.40;1.25;;;8.50;99.90;;;;;;5027946;28;20102;-76
2023/11/07 04:59:31;;;;;;;5.70;1.50;;;8.40;99.90;;;;;;5011275;28;20120;-75
2023/11/07 05:01:57;;;;;;;9.20;1.77;;;8.40;99.90;;;;;;5028220;28;20042;-76
2023/11/07 05:04:22;;;;;;;6.53;1.05;;;8.40;99.90;;;;;;5011271;28;20033;-76
2023/11/07 05:06:48;;;;;;;6.18;1.55;;;8.30;99.90;;;;;;5028845;28;20036;-75
2023/11/07 05:09:14;;;;;;;5.07;1.38;;;8.30;99.90;;;;;;5010164;28;20033;-78
2023/11/07 05:11:40;;;;;;;3.55;1.23;;;8.30;99.90;;;;;;5029154;28;20036;-76
2023/11/07 05:14:09;;;;;;;5.50;1.30;;;8.30;99.90;;;;;;5009411;28;20471;-76
2023/11/07 05:16:39;;;;;;;8.30;2.20;;;8.30;99.90;;;;;;5028963;28;20101;-75
2023/11/07 05:19:07;;;;;;;5.97;1.65;;;8.20;99.90;;;;;;5027860;28;20091;-75
2023/11/07 05:21:33;;;;;;;5.15;1.52;;;8.20;99.90;;;;;;5028747;28;20034;-74
2023/11/07 05:23:59;;;;;;;8.85;1.67;;;8.20;99.90;;;;;;5009739;28;20446;-76
2023/11/07 05:26:25;;;;;;;4.82;1.77;;;8.20;99.90;;;;;;5028676;28;20121;-76
2023/11/07 05:28:51;;;;;;;9.90;2.13;;;8.20;99.90;;;;;;5028724;28;20034;-75
2023/11/07 05:31:17;;;;;;;3.83;2.13;;;8.10;99.90;;;;;;5019017;28;20170;-76
2023/11/07 05:33:45;;;;;;;6.75;1.50;;;8.20;99.90;;;;;;5031072;28;20053;-78
2023/11/07 05:36:12;;;;;;;8.20;1.50;;;8.10;99.90;;;;;;5007968;28;20558;-76
2023/11/07 05:38:38;;;;;;;7.38;1.75;;;8.10;99.90;;;;;;4991005;28;20476;-76
2023/11/07 05:41:04;;;;;;;8.70;1.67;;;8.10;99.90;;;;;;4990385;28;20444;-75
2023/11/07 05:43:30;;;;;;;2.60;1.05;;;8.10;99.90;;;;;;5022288;28;20047;-75
2023/11/07 05:45:56;;;;;;;5.90;1.65;;;8.00;99.90;;;;;;5009626;28;20034;-75
2023/11/07 05:48:24;;;;;;;3.88;1.45;;;8.00;99.90;;;;;;5023742;28;20072;-77
2023/11/07 05:50:50;;;;;;;6.50;1.30;;;8.00;99.90;;;;;;5028977;28;20038;-75
2023/11/07 05:53:17;;;;;;;8.82;2.55;;;8.00;99.90;;;;;;5026047;28;20036;-76
2023/11/07 05:55:43;;;;;;;4.03;1.52;;;8.00;99.90;;;;;;5027182;28;20060;-77
2023/11/07 05:58:08;;;;;;;6.30;1.60;;;8.00;99.90;;;;;;5027532;28;20440;-76
2023/11/07 06:00:34;;;;;;;5.57;1.55;;;8.00;99.90;;;;;;5026867;28;20035;-75
2023/11/07 06:03:00;;;;;;;7.72;1.83;;;8.00;99.90;;;;;;5027130;28;20034;-76
2023/11/07 06:05:26;;;;;;;6.50;1.80;;;7.90;99.90;;;;;;5027422;28;20089;-75
2023/11/07 06:07:55;;;;;;;4.40;1.83;;;7.90;99.90;;;;;;5028295;28;20041;-75
2023/11/07 06:10:21;;;;;;;8.93;1.20;;;7.90;99.90;;;;;;5020673;28;20033;-77
2023/11/07 06:12:47;;;;;;;6.38;1.70;;;7.90;99.90;;;;;;5025310;28;20399;-74
2023/11/07 06:15:14;;;;;;;5.57;1.85;;;7.90;99.90;;;;;;5036466;28;20044;-76
2023/11/07 06:17:39;;;;;;;4.65;1.65;;;7.90;99.90;;;;;;5028937;28;20488;-75
2023/11/07 06:20:05;;;;;;;7.82;2.55;;;7.80;99.90;;;;;;5028819;28;20143;-76
2023/11/07 06:22:31;;;;;;;9.57;3.33;;;7.80;99.90;;;;;;5032861;28;20045;-75
2023/11/07 06:24:57;;;;;;;8.18;3.00;;;7.80;99.90;;;;;;5035042;28;20188;-77
2023/11/07 06:27:22;;;;;;;3.72;1.58;;;7.80;99.90;;;;;;5035407;28;20064;-75
2023/11/07 06:29:48;;;;;;;5.35;1.75;;;7.80;99.90;;;;;;5037107;28;20037;-75
2023/11/07 06:32:14;;;;;;;4.72;2.28;;;7.70;99.90;;;;;;5038321;28;20564;-76
2023/11/07 06:34:40;;;;;;;8.50;2.65;;;7.70;99.90;;;;;;5038368;28;20567;-77
2023/11/07 06:37:06;;;;;;;3.83;1.70;;;7.70;99.90;;;;;;5035005;28;20041;-75
2023/11/07 06:39:32;;;;;;;10.82;1.98;;;7.70;99.90;;;;;;5039196;28;20053;-75
2023/11/07 06:41:58;;;;;;;5.57;1.98;;;7.70;99.90;;;;;;5029599;28;20034;-76
2023/11/07 06:44:24;;;;;;;7.43;2.20;;;7.70;99.90;;;;;;5030244;28;20040;-75
2023/11/07 06:46:51;;;;;;;6.32;2.22;;;7.70;99.90;;;;;;5035782;28;20545;-76
2023/11/07 06:49:17;;;;;;;9.90;2.83;;;7.80;99.90;;;;;;5027555;28;20033;-74
2023/11/07 06:51:43;;;;;;;7.07;1.55;;;7.80;99.90;;;;;;5031549;28;20080;-75
2023/11/07 06:54:09;;;;;;;4.75;2.25;;;7.90;99.90;;;;;;5047650;28;20568;-76
2023/11/07 06:56:34;;;;;;;4.68;1.70;;;7.90;99.90;;;;;;5030900;28;20036;-77
2023/11/07 06:59:00;;;;;;;17.30;3.38;;;8.00;99.90;;;;;;5028339;28;20120;-76
2023/11/07 07:01:28;;;;;;;4.78;2.13;;;8.00;99.90;;;;;;5047217;28;20033;-75
2023/11/07 07:03:54;;;;;;;11.02;3.10;;;8.10;99.90;;;;;;5044868;28;20032;-76
2023/11/07 07:06:23;;;;;;;5.82;1.77;;;8.10;99.90;;;;;;5027935;28;20033;-77
2023/11/07 07:08:50;;;;;;;7.18;1.92;;;8.10;99.90;;;;;;5025343;28;20506;-75
2023/11/07 07:11:15;;;;;;;5.32;1.60;;;8.10;99.90;;;;;;5041395;28;20033;-75
2023/11/07 07:13:41;;;;;;;7.60;2.10;;;8.20;99.90;;;;;;5048207;28;20390;-74
2023/11/07 07:16:08;;;;;;;4.13;1.55;;;8.20;99.90;;;;;;5047404;28;20510;-75
2023/11/07 07:18:34;;;;;;;5.43;2.50;;;8.10;99.90;;;;;;5030430;28;20505;-75
2023/11/07 07:21:00;;;;;;;14.45;2.10;;;8.20;99.90;;;;;;5044012;28;20484;-77
2023/11/07 07:23:25;;;;;;;5.60;2.47;;;8.20;99.90;;;;;;5022850;28;20052;-76
2023/11/07 07:25:53;;;;;;;5.05;2.13;;;8.10;99.90;;;;;;5027977;28;20041;-75
2023/11/07 07:28:19;;;;;;;6.07;2.38;;;8.20;99.90;;;;;;5046338;28;20024;-75
2023/11/07 07:30:46;;;;;;;5.53;1.92;;;8.20;99.90;;;;;;5038940;28;20506;-74
2023/11/07 07:33:15;;;;;;;8.57;2.95;;;8.20;99.90;;;;;;5043382;28;20521;-78
2023/11/07 07:35:40;;;;;;;4.85;2.67;;;8.10;99.90;;;;;;5045264;28;20044;-75
2023/11/07 07:38:09;;;;;;;9.80;2.83;;;8.10;99.90;;;;;;5046522;28;20029;-75
2023/11/07 07:40:34;;;;;;;9.93;2.88;;;8.10;99.90;;;;;;5027619;28;20101;-75
2023/11/07 07:43:08;;;;;;;9.07;3.05;;;8.10;99.90;;;;;;5042367;28;20546;-75
2023/11/07 07:45:35;;;;;;;6.47;1.92;;;8.10;99.90;;;;;;5029474;28;20036;-76
2023/11/07 07:48:04;;;;;;;5.68;2.63;;;8.10;99.90;;;;;;5026448;28;20394;-75
2023/11/07 07:50:30;;;;;;;8.05;3.00;;;8.10;99.90;;;;;;5034804;28;20043;-75
2023/11/07 07:52:58;;;;;;;8.77;2.97;;;8.10;99.90;;;;;;5037538;28;20045;-74
2023/11/07 07:55:27;;;;;;;9.07;3.30;;;8.10;99.90;;;;;;5034274;28;20033;-74
2023/11/07 07:57:58;;;;;;;4.95;2.33;;;8.10;99.90;;;;;;5036939;28;20498;-74
2023/11/07 08:00:24;;;;;;;7.07;2.60;;;8.10;99.90;;;;;;5037308;28;20397;-74
2023/11/07 08:02:51;;;;;;;8.20;2.42;;;8.10;99.90;;;;;;5036708;28;20041;-76
2023/11/07 08:05:18;;;;;;;6.25;2.80;;;8.20;99.90;;;;;;5035300;28;20145;-76
2023/11/07 08:07:48;;;;;;;8.90;2.80;;;8.20;99.90;;;;;;5047508;28;20052;-77
2023/11/07 08:10:17;;;;;;;;;;;8.20;99.90;;;;;;5034627;28;20441;-76
2023/11/07 08:12:43;;;;;;;10.32;3.20;;;8.30;99.90;;;;;;5034663;28;19909;-75
2023/11/07 08:15:11;;;;;;;7.68;2.63;;;8.30;99.90;;;;;;5040898;28;20459;-75
2023/11/07 08:17:37;;;;;;;4.50;2.30;;;8.40;99.90;;;;;;5038550;28;20033;-75
2023/11/07 08:20:15;;;;;;;7.10;3.00;;;8.40;99.90;;;;;;5032751;28;20578;-76
2023/11/07 08:22:45;;;;;;;9.25;2.55;;;8.50;99.90;;;;;;5032376;28;20561;-75
2023/11/07 08:25:11;;;;;;;8.60;2.53;;;8.60;99.90;;;;;;5040771;28;20088;-76
2023/11/07 08:27:38;;;;;;;7.28;2.95;;;8.60;99.90;;;;;;5031402;28;20021;-76
2023/11/07 08:30:10;;;;;;;9.05;2.60;;;8.70;99.90;;;;;;5033659;28;20041;-76
2023/11/07 08:32:42;;;;;;;7.80;3.28;;;8.70;99.90;;;;;;5037189;28;20033;-76
2023/11/07 08:35:10;;;;;;;5.05;2.40;;;8.80;99.90;;;;;;5041627;28;20033;-77
2023/11/07 08:37:35;;;;;;;4.90;2.67;;;8.80;99.90;;;;;;5035857;28;20060;-77
2023/11/07 08:40:03;;;;;;;4.75;1.73;;;8.90;99.90;;;;;;5033018;28;20398;-75
2023/11/07 08:42:30;;;;;;;5.43;1.92;;;9.00;99.90;;;;;;5039868;28;20395;-76
2023/11/07 08:44:55;;;;;;;7.95;1.83;;;9.00;99.90;;;;;;5029676;28;20116;-75
2023/11/07 08:47:21;;;;;;;4.70;1.67;;;9.00;99.90;;;;;;5043748;28;20120;-76
2023/11/07 08:49:46;;;;;;;6.75;1.63;;;9.10;99.90;;;;;;5039390;28;20068;-74
2023/11/07 08:52:14;;;;;;;6.03;1.90;;;9.20;99.90;;;;;;5041119;28;20045;-76
2023/11/07 08:54:39;;;;;;;4.80;1.60;;;9.30;99.90;;;;;;5025043;28;20037;-78
2023/11/07 08:57:05;;;;;;;19.02;2.17;;;9.30;99.90;;;;;;5043709;28;20184;-75
2023/11/07 08:59:30;;;;;;;4.20;1.27;;;9.40;99.90;;;;;;5035407;28;20037;-76
2023/11/07 09:01:56;;;;;;;6.72;1.60;;;9.50;99.90;;;;;;5019045;28;20030;-76
2023/11/07 09:04:21;;;;;;;9.77;1.20;;;9.60;99.90;;;;;;5027926;28;20025;-76
2023/11/07 09:06:47;;;;;;;6.97;1.27;;;9.60;99.90;;;;;;5040890;28;20065;-75
2023/11/07 09:09:16;;;;;;;7.90;1.60;;;9.70;99.90;;;;;;5027057;28;20037;-75
2023/11/07 09:11:42;;;;;;;2.83;0.85;;;9.80;99.90;;;;;;5031799;28;20030;-74
2023/11/07 09:14:09;;;;;;;4.70;0.70;;;10.00;99.90;;;;;;5028416;28;20025;-75
2023/11/07 09:16:34;;;;;;;5.35;1.38;;;10.10;99.90;;;;;;5041607;28;20040;-76
2023/11/07 09:19:00;;;;;;;2.83;0.82;;;10.10;99.90;;;;;;5025908;28;20025;-75
2023/11/07 09:21:26;;;;;;;4.57;1.05;;;10.10;99.90;;;;;;5033260;28;20097;-76
2023/11/07 09:23:53;;;;;;;1.63;0.68;;;10.20;99.90;;;;;;5027946;28;20025;-74
2023/11/07 09:26:19;;;;;;;6.75;0.80;;;10.20;99.90;;;;;;5023327;28;20056;-76
2023/11/07 09:28:45;;;;;;;3.47;1.17;;;10.20;99.90;;;;;;5027787;28;20041;-76
2023/11/07 09:31:12;;;;;;;4.07;0.90;;;10.20;99.90;;;;;;5023054;28;20038;-75
2023/11/07 09:33:37;;;;;;;4.32;0.82;;;10.20;99.90;;;;;;5037492;28;20025;-75
2023/11/07 09:36:03;;;;;;;2.95;0.60;;;10.40;99.90;;;;;;5031645;28;20117;-75
2023/11/07 09:38:29;;;;;;;2.22;0.60;;;10.40;99.90;;;;;;5023103;28;20040;-76
2023/11/07 09:40:56;;;;;;;3.47;1.50;;;10.50;99.90;;;;;;5020544;28;20490;-76
2023/11/07 09:43:26;;;;;;;5.30;0.68;;;10.50;99.90;;;;;;5030046;28;20392;-76
2023/11/07 09:45:59;;;;;;;1.95;0.50;;;10.60;99.90;;;;;;5033001;28;20029;-74
2023/11/07 09:48:26;;;;;;;3.17;1.52;;;10.70;99.90;;;;;;5038988;28;20033;-75
2023/11/07 09:50:54;;;;;;;2.78;0.77;;;10.70;99.90;;;;;;5022425;28;20037;-75
2023/11/07 09:53:20;;;;;;;5.65;1.30;;;10.70;99.90;;;;;;5026693;28;20059;-76
2023/11/07 09:55:46;;;;;;;6.88;0.73;;;10.60;99.90;;;;;;5032151;28;20096;-76
2023/11/07 09:58:22;;;;;;;2.03;0.60;;;10.60;99.90;;;;;;5023289;28;20037;-75
2023/11/07 10:00:49;;;;;;;6.18;0.57;;;10.60;99.90;;;;;;5034576;28;20384;-76
2023/11/07 10:03:15;;;;;;;3.90;1.08;;;10.70;99.90;;;;;;5022843;28;20029;-75
2023/11/07 10:05:41;;;;;;;4.50;0.38;;;10.80;99.90;;;;;;5016869;28;20281;-76
2023/11/07 10:08:06;;;;;;;1.73;0.70;;;10.90;99.90;;;;;;5026035;28;20076;-74
2023/11/07 10:10:34;;;;;;;3.40;0.95;;;10.90;99.90;;;;;;5029111;28;20033;-75
2023/11/07 10:13:10;;;;;;;1.70;0.50;;;10.90;99.90;;;;;;5027957;28;20608;-75
2023/11/07 10:15:37;;;;;;;3.17;1.58;;;11.00;99.90;;;;;;5022084;28;20255;-74
2023/11/07 10:18:06;;;;;;;5.95;0.82;;;11.00;99.90;;;;;;5022709;28;20043;-76
2023/11/07 10:20:33;;;;;;;2.80;0.60;;;11.00;99.90;;;;;;5016693;28;20056;-76
2023/11/07 10:22:59;;;;;;;4.03;0.60;;;11.10;99.90;;;;;;5024583;28;20491;-77
2023/11/07 10:25:30;;;;;;;4.53;0.65;;;11.30;99.90;;;;;;5020422;28;20018;-77
2023/11/07 10:28:15;;;;;;;4.13;0.57;;;11.30;99.90;;;;;;5018851;28;20034;-74
2023/11/07 10:30:41;;;;;;;3.25;0.38;;;11.40;99.90;;;;;;5014902;28;20037;-74
2023/11/07 10:33:08;;;;;;;3.33;0.60;;;11.50;99.90;;;;;;5009577;28;20053;-75
2023/11/07 10:35:54;;;;;;;2.75;0.55;;;11.50;99.90;;;;;;5018816;28;20043;-76
2023/11/07 10:38:19;;;;;;;3.20;0.50;;;11.50;99.90;;;;;;5026128;28;20082;-75
2023/11/07 10:40:49;;;;;;;6.00;0.70;;;11.50;99.90;;;;;;5020113;28;20503;-74
2023/11/07 10:43:34;;;;;;;8.85;1.15;;;11.50;99.90;;;;;;5024983;28;20456;-76
2023/11/07 10:46:04;;;;;;;5.13;0.50;;;12.00;99.90;;;;;;5034455;28;20499;-75
2023/11/07 10:48:38;;;;;;;4.63;0.50;;;12.40;99.90;;;;;;5032639;28;20049;-75
2023/11/07 10:51:05;;;;;;;1.70;0.40;;;12.80;99.90;;;;;;5021137;28;20033;-74
2023/11/07 10:53:35;;;;;;;2.97;0.50;;;12.90;99.90;;;;;;5043670;28;20044;-74
2023/11/07 10:56:03;;;;;;;2.85;0.40;;;12.70;99.90;;;;;;5020726;28;20396;-74
2023/11/07 10:58:31;;;;;;;2.80;0.90;;;12.50;99.90;;;;;;5038421;28;20035;-75
2023/11/07 11:01:03;;;;;;;4.05;0.60;;;12.30;99.90;;;;;;5039591;28;20056;-73
2023/11/07 11:03:29;;;;;;;4.25;0.70;;;12.10;99.90;;;;;;5044060;28;20056;-75
2023/11/07 11:05:57;;;;;;;4.38;0.60;;;12.20;99.90;;;;;;5036513;28;20049;-76
2023/11/07 11:08:23;;;;;;;2.75;0.85;;;12.50;99.90;;;;;;5039629;28;20511;-76
2023/11/07 11:10:52;;;;;;;1.95;0.90;;;12.90;99.90;;;;;;5042781;28;20045;-77
2023/11/07 11:13:23;;;;;;;1.73;0.60;;;13.10;99.90;;;;;;5044210;28;20032;-77
2023/11/07 11:15:50;;;;;;;1.30;0.30;;;13.10;99.90;;;;;;5044842;28;20139;-76
2023/11/07 11:18:25;;;;;;;1.73;0.77;;;12.80;99.90;;;;;;5041536;28;20126;-74
2023/11/07 11:21:16;;;;;;;0.98;0.38;;;12.60;99.90;;;;;;5027933;28;20053;-75
2023/11/07 11:24:07;;;;;;;4.60;0.70;;;12.30;99.90;;;;;;5025937;28;20183;-75
2023/11/07 11:26:51;;;;;;;2.95;0.50;;;12.10;99.90;;;;;;5024528;28;20061;-76
2023/11/07 11:29:29;;;;;;;1.35;0.38;;;12.00;99.90;;;;;;5043950;28;20108;-75
2023/11/07 11:31:56;;;;;;;2.55;0.50;;;12.00;99.90;;;;;;5040375;28;20055;-76
2023/11/07 11:34:25;;;;;;;4.97;0.50;;;11.80;99.90;;;;;;5037283;28;20083;-75
2023/11/07 11:36:56;;;;;;;1.50;0.40;;;11.80;99.90;;;;;;5025811;28;20036;-75
2023/11/07 11:39:45;;;;;;;3.05;0.57;;;11.80;99.90;;;;;;5024548;28;20047;-75
2023/11/07 11:42:11;;;;;;;2.83;0.82;;;11.80;99.90;;;;;;5030668;28;20553;-74
2023/11/07 11:44:38;;;;;;;4.68;0.70;;;11.70;99.90;;;;;;5028750;28;20029;-75
2023/11/07 11:47:04;;;;;;;3.65;0.50;;;11.70;99.90;;;;;;5040655;28;20751;-75
2023/11/07 11:49:30;;;;;;;4.72;0.57;;;11.70;99.90;;;;;;5024667;28;20029;-75
2023/11/07 11:51:57;;;;;;;3.47;0.60;;;11.70;99.90;;;;;;5030672;28;20075;-75
2023/11/07 11:54:22;;;;;;;2.55;0.63;;;11.70;99.90;;;;;;5031130;28;20053;-75
2023/11/07 11:56:51;;;;;;;6.05;0.70;;;11.70;99.90;;;;;;5028888;28;20061;-76
2023/11/07 11:59:30;;;;;;;2.28;0.80;;;11.70;99.90;;;;;;5018414;28;20391;-75
2023/11/07 12:02:04;;;;;;;1.80;0.52;;;11.70;99.90;;;;;;5027749;28;20675;-75
2023/11/07 12:04:31;;;;;;;9.18;0.50;;;11.70;99.90;;;;;;5021905;28;20021;-75
2023/11/07 12:07:14;;;;;;;3.10;0.60;;;11.70;99.90;;;;;;5030473;28;20036;-76
2023/11/07 12:09:45;;;;;;;2.42;0.40;;;11.60;99.90;;;;;;5035529;28;20034;-76
2023/11/07 12:12:14;;;;;;;3.58;0.60;;;11.70;99.90;;;;;;5021758;28;20038;-74
2023/11/07 12:14:57;;;;;;;4.35;0.82;;;11.70;99.90;;;;;;5028711;28;20438;-75
2023/11/07 12:17:28;;;;;;;7.53;0.90;;;11.90;99.90;;;;;;5031044;28;20399;-74
2023/11/07 12:20:03;;;;;;;2.50;0.40;;;12.00;99.90;;;;;;5038801;28;20535;-78
2023/11/07 12:22:28;;;;;;;2.13;0.50;;;12.10;99.90;;;;;;5038843;28;20498;-74
2023/11/07 12:25:13;;;;;;;4.80;0.50;;;12.20;99.90;;;;;;5034625;28;20047;-74
2023/11/07 12:27:43;;;;;;;4.15;0.52;;;12.30;99.90;;;;;;5034441;28;20073;-75
2023/11/07 12:30:12;;;;;;;8.85;0.95;;;12.20;99.90;;;;;;5027525;28;20041;-78
2023/11/07 12:32:38;;;;;;;2.97;0.70;;;12.20;99.90;;;;;;5038851;28;20595;-75
2023/11/07 12:35:20;;;;;;;1.70;0.45;;;12.20;99.90;;;;;;5024015;28;20029;-75
2023/11/07 12:37:47;;;;;;;1.92;0.45;;;12.20;99.90;;;;;;5030934;28;20117;-74
2023/11/07 12:40:15;;;;;;;2.17;0.90;;;12.20;99.90;;;;;;5023374;28;20128;-77
2023/11/07 12:42:43;;;;;;;4.70;0.77;;;12.20;99.90;;;;;;5030172;28;20108;-74
2023/11/07 12:45:09;;;;;;;2.42;0.30;;;12.10;99.90;;;;;;5033317;28;20037;-75
2023/11/07 12:47:35;;;;;;;1.65;0.40;;;12.10;99.90;;;;;;5038592;28;20041;-75
2023/11/07 12:50:00;;;;;;;1.42;0.40;;;12.20;99.90;;;;;;5043314;28;20384;-77
2023/11/07 12:52:26;;;;;;;4.10;0.40;;;12.30;99.90;;;;;;5028142;28;20032;-76
2023/11/07 12:54:52;;;;;;;2.22;0.40;;;12.30;99.90;;;;;;5028076;28;20037;-75